sensor_id;sensor_type;location;lat;lon;timestamp;P1;durP1;ratioP1;P2;durP2;ratioP2
51636;SDS011;37713;53.254;6.460;2022-09-12T00:01:36;25.85;;;11.27;;
51636;SDS011;37713;53.254;6.460;2022-09-12T00:04:02;15.20;;;11.38;;
51636;SDS011;37713;53.254;6.460;2022-09-12T00:06:29;29.65;;;12.07;;
51636;SDS011;37713;53.254;6.460;2022-09-12T00:08:59;31.75;;;12.20;;
51636;SDS011;37713;53.254;6.460;2022-09-12T00:11:30;13.55;;;11.52;;
51636;SDS011;37713;53.254;6.460;2022-09-12T00:13:56;40.72;;;12.05;;
51636;SDS011;37713;53.254;6.460;2022-09-12T00:16:25;36.28;;;12.68;;
51636;SDS011;37713;53.254;6.460;2022-09-12T00:18:52;15.32;;;10.93;;
51636;SDS011;37713;53.254;6.460;2022-09-12T00:21:18;16.88;;;11.73;;
51636;SDS011;37713;53.254;6.460;2022-09-12T00:23:45;36.05;;;12.68;;
51636;SDS011;37713;53.254;6.460;2022-09-12T00:26:11;32.95;;;12.68;;
51636;SDS011;37713;53.254;6.460;2022-09-12T00:28:38;18.25;;;12.65;;
51636;SDS011;37713;53.254;6.460;2022-09-12T00:31:06;24.75;;;13.20;;
51636;SDS011;37713;53.254;6.460;2022-09-12T00:33:34;15.55;;;11.82;;
51636;SDS011;37713;53.254;6.460;2022-09-12T00:36:02;33.30;;;13.82;;
51636;SDS011;37713;53.254;6.460;2022-09-12T00:38:30;16.58;;;12.25;;
51636;SDS011;37713;53.254;6.460;2022-09-12T00:40:56;43.42;;;15.13;;
51636;SDS011;37713;53.254;6.460;2022-09-12T00:45:54;29.73;;;12.32;;
51636;SDS011;37713;53.254;6.460;2022-09-12T00:48:23;22.13;;;12.65;;
51636;SDS011;37713;53.254;6.460;2022-09-12T00:51:05;21.63;;;12.68;;
51636;SDS011;37713;53.254;6.460;2022-09-12T00:53:31;18.30;;;12.52;;
51636;SDS011;37713;53.254;6.460;2022-09-12T00:55:57;37.80;;;13.60;;
51636;SDS011;37713;53.254;6.460;2022-09-12T00:58:24;28.42;;;14.57;;
51636;SDS011;37713;53.254;6.460;2022-09-12T01:00:59;21.65;;;13.68;;
51636;SDS011;37713;53.254;6.460;2022-09-12T01:03:25;23.50;;;13.07;;
51636;SDS011;37713;53.254;6.460;2022-09-12T01:08:35;19.52;;;13.38;;
51636;SDS011;37713;53.254;6.460;2022-09-12T01:13:31;15.70;;;12.07;;
51636;SDS011;37713;53.254;6.460;2022-09-12T01:16:01;22.35;;;12.95;;
51636;SDS011;37713;53.254;6.460;2022-09-12T01:18:29;29.58;;;13.75;;
51636;SDS011;37713;53.254;6.460;2022-09-12T01:21:24;29.42;;;13.55;;
51636;SDS011;37713;53.254;6.460;2022-09-12T01:35:28;18.58;;;14.52;;
51636;SDS011;37713;53.254;6.460;2022-09-12T01:40:48;44.70;;;15.75;;
51636;SDS011;37713;53.254;6.460;2022-09-12T01:43:32;23.10;;;14.75;;
51636;SDS011;37713;53.254;6.460;2022-09-12T01:46:21;16.52;;;14.20;;
51636;SDS011;37713;53.254;6.460;2022-09-12T01:49:06;25.08;;;15.60;;
51636;SDS011;37713;53.254;6.460;2022-09-12T01:56:45;42.40;;;17.13;;
51636;SDS011;37713;53.254;6.460;2022-09-12T01:59:17;21.52;;;15.65;;
51636;SDS011;37713;53.254;6.460;2022-09-12T02:01:57;21.83;;;14.88;;
51636;SDS011;37713;53.254;6.460;2022-09-12T02:04:32;25.33;;;15.30;;
51636;SDS011;37713;53.254;6.460;2022-09-12T02:07:13;27.58;;;15.75;;
51636;SDS011;37713;53.254;6.460;2022-09-12T02:09:47;21.30;;;16.25;;
51636;SDS011;37713;53.254;6.460;2022-09-12T02:12:45;32.80;;;16.63;;
51636;SDS011;37713;53.254;6.460;2022-09-12T02:15:34;24.38;;;15.48;;
51636;SDS011;37713;53.254;6.460;2022-09-12T02:18:10;37.45;;;15.85;;
51636;SDS011;37713;53.254;6.460;2022-09-12T02:23:07;24.90;;;15.63;;
51636;SDS011;37713;53.254;6.460;2022-09-12T02:25:39;24.63;;;15.93;;
51636;SDS011;37713;53.254;6.460;2022-09-12T02:28:19;18.27;;;15.05;;
51636;SDS011;37713;53.254;6.460;2022-09-12T02:31:19;31.33;;;15.27;;
51636;SDS011;37713;53.254;6.460;2022-09-12T02:33:53;21.42;;;15.40;;
51636;SDS011;37713;53.254;6.460;2022-09-12T02:38:58;26.38;;;16.17;;
51636;SDS011;37713;53.254;6.460;2022-09-12T02:41:24;21.00;;;16.00;;
51636;SDS011;37713;53.254;6.460;2022-09-12T02:43:51;26.55;;;16.52;;
51636;SDS011;37713;53.254;6.460;2022-09-12T02:46:23;20.80;;;16.13;;
51636;SDS011;37713;53.254;6.460;2022-09-12T02:48:55;26.35;;;16.63;;
51636;SDS011;37713;53.254;6.460;2022-09-12T02:51:22;22.17;;;16.33;;
51636;SDS011;37713;53.254;6.460;2022-09-12T02:53:50;20.38;;;15.73;;
51636;SDS011;37713;53.254;6.460;2022-09-12T02:56:17;37.78;;;17.80;;
51636;SDS011;37713;53.254;6.460;2022-09-12T02:58:55;40.38;;;18.35;;
51636;SDS011;37713;53.254;6.460;2022-09-12T03:01:40;35.80;;;17.30;;
51636;SDS011;37713;53.254;6.460;2022-09-12T03:04:41;23.05;;;16.95;;
51636;SDS011;37713;53.254;6.460;2022-09-12T03:18:04;21.92;;;15.20;;
51636;SDS011;37713;53.254;6.460;2022-09-12T03:23:52;19.45;;;15.18;;
51636;SDS011;37713;53.254;6.460;2022-09-12T03:29:09;31.25;;;16.35;;
51636;SDS011;37713;53.254;6.460;2022-09-12T03:31:36;21.42;;;15.05;;
51636;SDS011;37713;53.254;6.460;2022-09-12T03:34:11;22.02;;;15.73;;
51636;SDS011;37713;53.254;6.460;2022-09-12T03:36:37;28.60;;;16.25;;
51636;SDS011;37713;53.254;6.460;2022-09-12T03:39:05;30.92;;;16.17;;
51636;SDS011;37713;53.254;6.460;2022-09-12T03:41:30;24.13;;;15.73;;
51636;SDS011;37713;53.254;6.460;2022-09-12T03:43:56;20.58;;;16.67;;
51636;SDS011;37713;53.254;6.460;2022-09-12T03:46:22;21.55;;;15.80;;
51636;SDS011;37713;53.254;6.460;2022-09-12T03:48:48;20.38;;;15.77;;
51636;SDS011;37713;53.254;6.460;2022-09-12T03:51:15;27.25;;;15.18;;
51636;SDS011;37713;53.254;6.460;2022-09-12T03:53:40;24.55;;;15.73;;
51636;SDS011;37713;53.254;6.460;2022-09-12T03:56:07;25.95;;;15.80;;
51636;SDS011;37713;53.254;6.460;2022-09-12T03:58:34;21.63;;;15.07;;
51636;SDS011;37713;53.254;6.460;2022-09-12T04:01:05;22.17;;;15.10;;
51636;SDS011;37713;53.254;6.460;2022-09-12T04:03:37;26.73;;;15.02;;
51636;SDS011;37713;53.254;6.460;2022-09-12T04:06:04;26.52;;;14.27;;
51636;SDS011;37713;53.254;6.460;2022-09-12T04:08:31;24.75;;;15.40;;
51636;SDS011;37713;53.254;6.460;2022-09-12T04:11:09;20.67;;;14.27;;
51636;SDS011;37713;53.254;6.460;2022-09-12T04:13:37;24.67;;;15.43;;
51636;SDS011;37713;53.254;6.460;2022-09-12T04:16:04;26.80;;;14.90;;
51636;SDS011;37713;53.254;6.460;2022-09-12T04:18:31;18.58;;;13.85;;
51636;SDS011;37713;53.254;6.460;2022-09-12T04:20:57;21.67;;;14.05;;
51636;SDS011;37713;53.254;6.460;2022-09-12T04:23:27;20.65;;;13.93;;
51636;SDS011;37713;53.254;6.460;2022-09-12T04:25:53;20.92;;;14.50;;
51636;SDS011;37713;53.254;6.460;2022-09-12T04:28:24;23.55;;;14.35;;
51636;SDS011;37713;53.254;6.460;2022-09-12T04:30:50;18.73;;;13.57;;
51636;SDS011;37713;53.254;6.460;2022-09-12T04:33:16;18.92;;;13.73;;
51636;SDS011;37713;53.254;6.460;2022-09-12T04:35:42;20.40;;;14.82;;
51636;SDS011;37713;53.254;6.460;2022-09-12T04:38:09;19.40;;;14.13;;
51636;SDS011;37713;53.254;6.460;2022-09-12T04:40:35;19.80;;;14.30;;
51636;SDS011;37713;53.254;6.460;2022-09-12T04:43:01;20.30;;;14.88;;
51636;SDS011;37713;53.254;6.460;2022-09-12T04:45:28;23.85;;;16.00;;
51636;SDS011;37713;53.254;6.460;2022-09-12T04:47:54;26.75;;;16.00;;
51636;SDS011;37713;53.254;6.460;2022-09-12T04:50:19;23.35;;;15.50;;
51636;SDS011;37713;53.254;6.460;2022-09-12T04:52:49;26.40;;;16.70;;
51636;SDS011;37713;53.254;6.460;2022-09-12T04:55:15;23.50;;;16.85;;
51636;SDS011;37713;53.254;6.460;2022-09-12T04:57:41;22.48;;;16.27;;
51636;SDS011;37713;53.254;6.460;2022-09-12T05:00:07;26.63;;;17.65;;
51636;SDS011;37713;53.254;6.460;2022-09-12T05:02:41;25.30;;;17.83;;
51636;SDS011;37713;53.254;6.460;2022-09-12T05:05:07;30.17;;;18.60;;
51636;SDS011;37713;53.254;6.460;2022-09-12T05:07:34;26.75;;;18.13;;
51636;SDS011;37713;53.254;6.460;2022-09-12T05:10:00;24.67;;;17.88;;
51636;SDS011;37713;53.254;6.460;2022-09-12T05:12:28;25.20;;;18.58;;
51636;SDS011;37713;53.254;6.460;2022-09-12T05:14:55;26.42;;;18.30;;
51636;SDS011;37713;53.254;6.460;2022-09-12T05:17:21;26.38;;;19.05;;
51636;SDS011;37713;53.254;6.460;2022-09-12T05:19:46;26.75;;;19.48;;
51636;SDS011;37713;53.254;6.460;2022-09-12T05:22:12;25.60;;;17.95;;
51636;SDS011;37713;53.254;6.460;2022-09-12T05:24:38;26.48;;;18.55;;
51636;SDS011;37713;53.254;6.460;2022-09-12T05:27:07;29.42;;;19.05;;
51636;SDS011;37713;53.254;6.460;2022-09-12T05:29:33;29.40;;;19.63;;
51636;SDS011;37713;53.254;6.460;2022-09-12T05:32:00;28.45;;;20.15;;
51636;SDS011;37713;53.254;6.460;2022-09-12T05:34:26;30.67;;;20.17;;
51636;SDS011;37713;53.254;6.460;2022-09-12T05:36:52;28.45;;;19.42;;
51636;SDS011;37713;53.254;6.460;2022-09-12T05:39:18;29.75;;;20.27;;
51636;SDS011;37713;53.254;6.460;2022-09-12T05:41:44;28.52;;;20.55;;
51636;SDS011;37713;53.254;6.460;2022-09-12T05:44:10;31.02;;;21.00;;
51636;SDS011;37713;53.254;6.460;2022-09-12T05:46:39;29.33;;;19.80;;
51636;SDS011;37713;53.254;6.460;2022-09-12T05:49:10;31.02;;;19.85;;
51636;SDS011;37713;53.254;6.460;2022-09-12T05:51:38;26.90;;;19.40;;
51636;SDS011;37713;53.254;6.460;2022-09-12T05:54:06;30.02;;;19.95;;
51636;SDS011;37713;53.254;6.460;2022-09-12T05:56:37;27.60;;;20.75;;
51636;SDS011;37713;53.254;6.460;2022-09-12T05:59:05;26.08;;;18.88;;
51636;SDS011;37713;53.254;6.460;2022-09-12T06:01:39;31.73;;;20.45;;
51636;SDS011;37713;53.254;6.460;2022-09-12T06:04:06;32.15;;;19.42;;
51636;SDS011;37713;53.254;6.460;2022-09-12T06:06:34;28.05;;;20.15;;
51636;SDS011;37713;53.254;6.460;2022-09-12T06:09:03;30.13;;;20.83;;
51636;SDS011;37713;53.254;6.460;2022-09-12T06:11:31;29.15;;;20.05;;
51636;SDS011;37713;53.254;6.460;2022-09-12T06:13:58;31.58;;;20.15;;
51636;SDS011;37713;53.254;6.460;2022-09-12T06:16:25;29.60;;;20.67;;
51636;SDS011;37713;53.254;6.460;2022-09-12T06:19:00;31.17;;;19.88;;
51636;SDS011;37713;53.254;6.460;2022-09-12T06:21:27;29.75;;;20.48;;
51636;SDS011;37713;53.254;6.460;2022-09-12T06:23:56;29.23;;;19.17;;
51636;SDS011;37713;53.254;6.460;2022-09-12T06:26:25;32.97;;;20.98;;
51636;SDS011;37713;53.254;6.460;2022-09-12T06:28:52;27.77;;;20.60;;
51636;SDS011;37713;53.254;6.460;2022-09-12T06:31:19;29.70;;;21.23;;
51636;SDS011;37713;53.254;6.460;2022-09-12T06:33:50;27.30;;;19.20;;
51636;SDS011;37713;53.254;6.460;2022-09-12T06:36:21;27.50;;;20.10;;
51636;SDS011;37713;53.254;6.460;2022-09-12T06:38:59;31.35;;;21.48;;
51636;SDS011;37713;53.254;6.460;2022-09-12T06:41:26;30.02;;;20.83;;
51636;SDS011;37713;53.254;6.460;2022-09-12T06:43:53;28.08;;;20.30;;
51636;SDS011;37713;53.254;6.460;2022-09-12T06:46:20;28.40;;;21.30;;
51636;SDS011;37713;53.254;6.460;2022-09-12T06:48:46;29.83;;;21.00;;
51636;SDS011;37713;53.254;6.460;2022-09-12T06:51:12;30.15;;;20.48;;
51636;SDS011;37713;53.254;6.460;2022-09-12T06:53:39;36.17;;;22.65;;
51636;SDS011;37713;53.254;6.460;2022-09-12T06:56:07;36.40;;;22.95;;
51636;SDS011;37713;53.254;6.460;2022-09-12T07:01:02;35.10;;;23.45;;
51636;SDS011;37713;53.254;6.460;2022-09-12T07:03:34;42.28;;;24.35;;
51636;SDS011;37713;53.254;6.460;2022-09-12T07:06:04;39.20;;;24.83;;
51636;SDS011;37713;53.254;6.460;2022-09-12T07:08:34;37.13;;;25.45;;
51636;SDS011;37713;53.254;6.460;2022-09-12T07:11:17;42.33;;;26.60;;
51636;SDS011;37713;53.254;6.460;2022-09-12T07:13:47;40.38;;;25.77;;
51636;SDS011;37713;53.254;6.460;2022-09-12T07:16:14;41.65;;;27.15;;
51636;SDS011;37713;53.254;6.460;2022-09-12T07:18:40;43.67;;;27.52;;
51636;SDS011;37713;53.254;6.460;2022-09-12T07:21:11;45.28;;;28.05;;
51636;SDS011;37713;53.254;6.460;2022-09-12T07:23:39;42.33;;;27.40;;
51636;SDS011;37713;53.254;6.460;2022-09-12T07:26:06;40.13;;;27.35;;
51636;SDS011;37713;53.254;6.460;2022-09-12T07:28:35;42.27;;;26.67;;
51636;SDS011;37713;53.254;6.460;2022-09-12T07:31:14;45.58;;;28.25;;
51636;SDS011;37713;53.254;6.460;2022-09-12T07:33:42;40.67;;;27.52;;
51636;SDS011;37713;53.254;6.460;2022-09-12T07:36:12;43.00;;;27.83;;
51636;SDS011;37713;53.254;6.460;2022-09-12T07:38:38;48.20;;;29.13;;
51636;SDS011;37713;53.254;6.460;2022-09-12T07:43:45;45.30;;;28.35;;
51636;SDS011;37713;53.254;6.460;2022-09-12T07:46:11;42.58;;;28.15;;
51636;SDS011;37713;53.254;6.460;2022-09-12T07:48:37;47.92;;;29.83;;
51636;SDS011;37713;53.254;6.460;2022-09-12T07:51:04;44.08;;;28.27;;
51636;SDS011;37713;53.254;6.460;2022-09-12T07:53:33;47.03;;;29.23;;
51636;SDS011;37713;53.254;6.460;2022-09-12T07:56:01;46.53;;;29.67;;
51636;SDS011;37713;53.254;6.460;2022-09-12T07:58:28;48.63;;;30.60;;
51636;SDS011;37713;53.254;6.460;2022-09-12T08:01:04;47.63;;;30.30;;
51636;SDS011;37713;53.254;6.460;2022-09-12T08:03:38;49.45;;;29.85;;
51636;SDS011;37713;53.254;6.460;2022-09-12T08:06:05;46.60;;;29.70;;
51636;SDS011;37713;53.254;6.460;2022-09-12T08:08:33;48.58;;;31.00;;
51636;SDS011;37713;53.254;6.460;2022-09-12T08:11:00;47.63;;;29.27;;
51636;SDS011;37713;53.254;6.460;2022-09-12T08:13:30;50.80;;;31.25;;
51636;SDS011;37713;53.254;6.460;2022-09-12T08:15:57;57.28;;;31.95;;
51636;SDS011;37713;53.254;6.460;2022-09-12T08:18:24;50.40;;;31.63;;
51636;SDS011;37713;53.254;6.460;2022-09-12T08:21:01;52.70;;;32.03;;
51636;SDS011;37713;53.254;6.460;2022-09-12T08:23:29;53.90;;;32.33;;
51636;SDS011;37713;53.254;6.460;2022-09-12T08:25:59;53.50;;;33.20;;
51636;SDS011;37713;53.254;6.460;2022-09-12T08:28:27;54.58;;;33.63;;
51636;SDS011;37713;53.254;6.460;2022-09-12T08:30:59;52.08;;;32.97;;
51636;SDS011;37713;53.254;6.460;2022-09-12T08:33:29;55.83;;;34.78;;
51636;SDS011;37713;53.254;6.460;2022-09-12T08:36:17;54.80;;;34.05;;
51636;SDS011;37713;53.254;6.460;2022-09-12T08:38:46;54.45;;;34.10;;
51636;SDS011;37713;53.254;6.460;2022-09-12T08:46:30;54.78;;;33.65;;
51636;SDS011;37713;53.254;6.460;2022-09-12T08:49:07;53.90;;;32.95;;
51636;SDS011;37713;53.254;6.460;2022-09-12T08:51:37;56.92;;;34.80;;
51636;SDS011;37713;53.254;6.460;2022-09-12T08:54:04;55.03;;;33.92;;
51636;SDS011;37713;53.254;6.460;2022-09-12T08:56:44;54.95;;;33.60;;
51636;SDS011;37713;53.254;6.460;2022-09-12T08:59:10;57.40;;;34.67;;
51636;SDS011;37713;53.254;6.460;2022-09-12T09:01:41;54.72;;;34.22;;
51636;SDS011;37713;53.254;6.460;2022-09-12T09:15:16;54.75;;;33.75;;
51636;SDS011;37713;53.254;6.460;2022-09-12T09:17:53;55.53;;;33.50;;
51636;SDS011;37713;53.254;6.460;2022-09-12T09:20:29;56.08;;;34.05;;
51636;SDS011;37713;53.254;6.460;2022-09-12T09:23:07;52.83;;;32.72;;
51636;SDS011;37713;53.254;6.460;2022-09-12T09:25:51;52.53;;;32.10;;
51636;SDS011;37713;53.254;6.460;2022-09-12T09:28:22;51.53;;;32.88;;
51636;SDS011;37713;53.254;6.460;2022-09-12T09:31:02;54.47;;;32.35;;
51636;SDS011;37713;53.254;6.460;2022-09-12T09:33:31;52.95;;;31.83;;
51636;SDS011;37713;53.254;6.460;2022-09-12T09:39:09;51.65;;;31.15;;
51636;SDS011;37713;53.254;6.460;2022-09-12T09:44:35;48.72;;;31.27;;
51636;SDS011;37713;53.254;6.460;2022-09-12T09:47:01;47.03;;;30.85;;
51636;SDS011;37713;53.254;6.460;2022-09-12T09:49:30;48.20;;;31.13;;
51636;SDS011;37713;53.254;6.460;2022-09-12T09:51:58;46.40;;;30.25;;
51636;SDS011;37713;53.254;6.460;2022-09-12T10:05:29;46.95;;;29.65;;
51636;SDS011;37713;53.254;6.460;2022-09-12T10:07:56;46.40;;;29.10;;
51636;SDS011;37713;53.254;6.460;2022-09-12T10:10:22;46.63;;;30.33;;
51636;SDS011;37713;53.254;6.460;2022-09-12T10:12:49;49.00;;;28.90;;
51636;SDS011;37713;53.254;6.460;2022-09-12T10:15:17;44.63;;;29.08;;
51636;SDS011;37713;53.254;6.460;2022-09-12T10:17:48;43.92;;;28.27;;
51636;SDS011;37713;53.254;6.460;2022-09-12T10:20:29;44.72;;;28.33;;
51636;SDS011;37713;53.254;6.460;2022-09-12T10:26:00;38.47;;;25.20;;
51636;SDS011;37713;53.254;6.460;2022-09-12T10:31:05;32.03;;;21.02;;
51636;SDS011;37713;53.254;6.460;2022-09-12T10:33:40;31.50;;;20.25;;
51636;SDS011;37713;53.254;6.460;2022-09-12T10:36:16;31.88;;;19.90;;
51636;SDS011;37713;53.254;6.460;2022-09-12T10:38:56;31.50;;;18.30;;
51636;SDS011;37713;53.254;6.460;2022-09-12T10:41:25;29.30;;;18.00;;
51636;SDS011;37713;53.254;6.460;2022-09-12T10:43:53;31.00;;;17.70;;
51636;SDS011;37713;53.254;6.460;2022-09-12T10:46:38;27.85;;;16.60;;
51636;SDS011;37713;53.254;6.460;2022-09-12T10:49:11;29.50;;;18.58;;
51636;SDS011;37713;53.254;6.460;2022-09-12T10:51:45;29.05;;;18.60;;
51636;SDS011;37713;53.254;6.460;2022-09-12T10:54:13;25.65;;;16.17;;
51636;SDS011;37713;53.254;6.460;2022-09-12T11:01:58;25.50;;;15.70;;
51636;SDS011;37713;53.254;6.460;2022-09-12T11:15:59;25.98;;;15.48;;
51636;SDS011;37713;53.254;6.460;2022-09-12T11:21:43;27.60;;;15.63;;
51636;SDS011;37713;53.254;6.460;2022-09-12T11:30:16;19.52;;;12.32;;
51636;SDS011;37713;53.254;6.460;2022-09-12T11:35:33;21.30;;;13.00;;
51636;SDS011;37713;53.254;6.460;2022-09-12T11:38:24;23.45;;;13.25;;
51636;SDS011;37713;53.254;6.460;2022-09-12T11:51:36;19.13;;;11.63;;
51636;SDS011;37713;53.254;6.460;2022-09-12T11:54:35;18.10;;;10.40;;
51636;SDS011;37713;53.254;6.460;2022-09-12T12:02:42;14.35;;;9.27;;
51636;SDS011;37713;53.254;6.460;2022-09-12T12:08:14;15.15;;;9.18;;
51636;SDS011;37713;53.254;6.460;2022-09-12T12:10:41;15.52;;;8.70;;
51636;SDS011;37713;53.254;6.460;2022-09-12T12:16:01;13.02;;;8.68;;
51636;SDS011;37713;53.254;6.460;2022-09-12T12:18:52;11.35;;;7.53;;
51636;SDS011;37713;53.254;6.460;2022-09-12T12:21:50;11.70;;;7.88;;
51636;SDS011;37713;53.254;6.460;2022-09-12T12:24:24;13.63;;;7.90;;
51636;SDS011;37713;53.254;6.460;2022-09-12T12:27:02;12.88;;;8.65;;
51636;SDS011;37713;53.254;6.460;2022-09-12T12:29:43;10.80;;;7.20;;
51636;SDS011;37713;53.254;6.460;2022-09-12T12:34:44;12.35;;;7.65;;
51636;SDS011;37713;53.254;6.460;2022-09-12T12:52:58;14.07;;;9.25;;
51636;SDS011;37713;53.254;6.460;2022-09-12T12:55:51;13.90;;;8.95;;
51636;SDS011;37713;53.254;6.460;2022-09-12T13:01:19;10.82;;;6.57;;
51636;SDS011;37713;53.254;6.460;2022-09-12T13:06:32;10.80;;;6.32;;
51636;SDS011;37713;53.254;6.460;2022-09-12T13:09:03;11.45;;;7.22;;
51636;SDS011;37713;53.254;6.460;2022-09-12T13:11:38;12.00;;;7.15;;
51636;SDS011;37713;53.254;6.460;2022-09-12T13:14:06;13.98;;;6.75;;
51636;SDS011;37713;53.254;6.460;2022-09-12T13:16:52;10.30;;;6.55;;
51636;SDS011;37713;53.254;6.460;2022-09-12T13:19:27;9.85;;;6.25;;
51636;SDS011;37713;53.254;6.460;2022-09-12T13:24:26;12.20;;;6.57;;
51636;SDS011;37713;53.254;6.460;2022-09-12T13:26:52;14.98;;;6.78;;
51636;SDS011;37713;53.254;6.460;2022-09-12T13:29:20;14.48;;;8.02;;
51636;SDS011;37713;53.254;6.460;2022-09-12T13:31:48;13.02;;;7.30;;
51636;SDS011;37713;53.254;6.460;2022-09-12T13:42:23;13.60;;;8.18;;
51636;SDS011;37713;53.254;6.460;2022-09-12T13:47:50;19.40;;;7.75;;
51636;SDS011;37713;53.254;6.460;2022-09-12T13:50:19;10.20;;;6.70;;
51636;SDS011;37713;53.254;6.460;2022-09-12T13:53:06;13.75;;;7.35;;
51636;SDS011;37713;53.254;6.460;2022-09-12T13:55:40;10.18;;;6.78;;
51636;SDS011;37713;53.254;6.460;2022-09-12T13:58:27;10.27;;;6.57;;
51636;SDS011;37713;53.254;6.460;2022-09-12T14:03:30;10.35;;;7.25;;
51636;SDS011;37713;53.254;6.460;2022-09-12T14:06:16;13.57;;;8.05;;
51636;SDS011;37713;53.254;6.460;2022-09-12T14:08:46;13.05;;;8.38;;
51636;SDS011;37713;53.254;6.460;2022-09-12T14:11:22;12.40;;;7.85;;
51636;SDS011;37713;53.254;6.460;2022-09-12T14:13:51;10.52;;;7.03;;
51636;SDS011;37713;53.254;6.460;2022-09-12T14:16:18;13.57;;;7.03;;
51636;SDS011;37713;53.254;6.460;2022-09-12T14:18:46;11.90;;;8.25;;
51636;SDS011;37713;53.254;6.460;2022-09-12T14:23:56;12.52;;;7.90;;
51636;SDS011;37713;53.254;6.460;2022-09-12T14:26:24;11.52;;;7.45;;
51636;SDS011;37713;53.254;6.460;2022-09-12T14:28:52;12.60;;;7.72;;
51636;SDS011;37713;53.254;6.460;2022-09-12T14:31:23;13.57;;;8.57;;
51636;SDS011;37713;53.254;6.460;2022-09-12T14:34:13;13.90;;;8.25;;
51636;SDS011;37713;53.254;6.460;2022-09-12T14:39:06;12.90;;;8.73;;
51636;SDS011;37713;53.254;6.460;2022-09-12T14:41:42;11.57;;;8.02;;
51636;SDS011;37713;53.254;6.460;2022-09-12T14:44:23;11.60;;;8.07;;
51636;SDS011;37713;53.254;6.460;2022-09-12T14:46:51;14.25;;;8.52;;
51636;SDS011;37713;53.254;6.460;2022-09-12T14:49:22;17.77;;;9.20;;
51636;SDS011;37713;53.254;6.460;2022-09-12T14:51:56;13.07;;;9.07;;
51636;SDS011;37713;53.254;6.460;2022-09-12T14:59:25;12.50;;;8.10;;
51636;SDS011;37713;53.254;6.460;2022-09-12T15:05:14;14.68;;;7.28;;
51636;SDS011;37713;53.254;6.460;2022-09-12T15:07:41;12.98;;;6.05;;
51636;SDS011;37713;53.254;6.460;2022-09-12T15:10:35;9.90;;;6.13;;
51636;SDS011;37713;53.254;6.460;2022-09-12T15:15:33;8.20;;;5.32;;
51636;SDS011;37713;53.254;6.460;2022-09-12T15:18:00;8.02;;;4.93;;
51636;SDS011;37713;53.254;6.460;2022-09-12T15:20:26;7.65;;;5.07;;
51636;SDS011;37713;53.254;6.460;2022-09-12T15:22:52;8.50;;;4.82;;
51636;SDS011;37713;53.254;6.460;2022-09-12T15:25:18;7.85;;;4.45;;
51636;SDS011;37713;53.254;6.460;2022-09-12T15:27:44;8.93;;;5.13;;
51636;SDS011;37713;53.254;6.460;2022-09-12T15:30:11;7.35;;;5.07;;
51636;SDS011;37713;53.254;6.460;2022-09-12T15:32:38;9.57;;;5.25;;
51636;SDS011;37713;53.254;6.460;2022-09-12T15:35:16;9.82;;;4.68;;
51636;SDS011;37713;53.254;6.460;2022-09-12T15:37:43;7.82;;;4.85;;
51636;SDS011;37713;53.254;6.460;2022-09-12T15:40:12;9.38;;;4.82;;
51636;SDS011;37713;53.254;6.460;2022-09-12T15:42:38;7.10;;;4.82;;
51636;SDS011;37713;53.254;6.460;2022-09-12T15:45:26;9.93;;;4.70;;
51636;SDS011;37713;53.254;6.460;2022-09-12T15:47:52;10.20;;;5.20;;
51636;SDS011;37713;53.254;6.460;2022-09-12T15:50:18;7.60;;;5.28;;
51636;SDS011;37713;53.254;6.460;2022-09-12T15:52:44;8.38;;;5.38;;
51636;SDS011;37713;53.254;6.460;2022-09-12T15:55:11;7.82;;;5.20;;
51636;SDS011;37713;53.254;6.460;2022-09-12T15:57:42;10.02;;;5.97;;
51636;SDS011;37713;53.254;6.460;2022-09-12T16:00:08;9.35;;;5.70;;
51636;SDS011;37713;53.254;6.460;2022-09-12T16:02:34;9.40;;;5.40;;
51636;SDS011;37713;53.254;6.460;2022-09-12T16:05:00;8.18;;;5.60;;
51636;SDS011;37713;53.254;6.460;2022-09-12T16:07:26;9.82;;;5.22;;
51636;SDS011;37713;53.254;6.460;2022-09-12T16:09:52;8.95;;;5.30;;
51636;SDS011;37713;53.254;6.460;2022-09-12T16:12:17;8.05;;;5.22;;
51636;SDS011;37713;53.254;6.460;2022-09-12T16:14:43;10.30;;;5.40;;
51636;SDS011;37713;53.254;6.460;2022-09-12T16:17:12;10.38;;;5.47;;
51636;SDS011;37713;53.254;6.460;2022-09-12T16:19:38;11.10;;;5.32;;
51636;SDS011;37713;53.254;6.460;2022-09-12T16:22:03;8.13;;;5.50;;
51636;SDS011;37713;53.254;6.460;2022-09-12T16:24:29;12.50;;;6.07;;
51636;SDS011;37713;53.254;6.460;2022-09-12T16:26:55;11.05;;;6.38;;
51636;SDS011;37713;53.254;6.460;2022-09-12T16:29:21;10.27;;;6.43;;
51636;SDS011;37713;53.254;6.460;2022-09-12T16:31:47;12.25;;;7.90;;
51636;SDS011;37713;53.254;6.460;2022-09-12T16:34:12;14.48;;;7.40;;
51636;SDS011;37713;53.254;6.460;2022-09-12T16:36:38;13.65;;;8.05;;
51636;SDS011;37713;53.254;6.460;2022-09-12T16:39:04;10.10;;;7.57;;
51636;SDS011;37713;53.254;6.460;2022-09-12T16:41:30;12.65;;;7.70;;
51636;SDS011;37713;53.254;6.460;2022-09-12T16:43:56;12.73;;;8.27;;
51636;SDS011;37713;53.254;6.460;2022-09-12T16:46:23;15.18;;;7.80;;
51636;SDS011;37713;53.254;6.460;2022-09-12T16:48:53;12.70;;;7.05;;
51636;SDS011;37713;53.254;6.460;2022-09-12T16:51:21;11.80;;;7.50;;
51636;SDS011;37713;53.254;6.460;2022-09-12T16:54:09;13.00;;;7.65;;
51636;SDS011;37713;53.254;6.460;2022-09-12T16:56:35;19.40;;;7.47;;
51636;SDS011;37713;53.254;6.460;2022-09-12T16:59:01;14.27;;;7.15;;
51636;SDS011;37713;53.254;6.460;2022-09-12T17:01:29;9.60;;;6.57;;
51636;SDS011;37713;53.254;6.460;2022-09-12T17:03:56;11.88;;;6.00;;
51636;SDS011;37713;53.254;6.460;2022-09-12T17:06:22;18.60;;;6.38;;
51636;SDS011;37713;53.254;6.460;2022-09-12T17:08:50;9.32;;;5.90;;
51636;SDS011;37713;53.254;6.460;2022-09-12T17:13:46;8.00;;;5.40;;
51636;SDS011;37713;53.254;6.460;2022-09-12T17:16:13;11.50;;;5.78;;
51636;SDS011;37713;53.254;6.460;2022-09-12T17:18:40;10.90;;;5.00;;
51636;SDS011;37713;53.254;6.460;2022-09-12T17:21:06;9.77;;;5.07;;
51636;SDS011;37713;53.254;6.460;2022-09-12T17:23:34;7.45;;;5.50;;
51636;SDS011;37713;53.254;6.460;2022-09-12T17:26:00;10.10;;;5.57;;
51636;SDS011;37713;53.254;6.460;2022-09-12T17:28:26;21.92;;;6.15;;
51636;SDS011;37713;53.254;6.460;2022-09-12T17:30:57;14.50;;;5.40;;
51636;SDS011;37713;53.254;6.460;2022-09-12T17:33:24;14.25;;;5.53;;
51636;SDS011;37713;53.254;6.460;2022-09-12T17:35:51;11.98;;;5.13;;
51636;SDS011;37713;53.254;6.460;2022-09-12T17:38:17;10.90;;;5.70;;
51636;SDS011;37713;53.254;6.460;2022-09-12T17:40:44;10.43;;;5.70;;
51636;SDS011;37713;53.254;6.460;2022-09-12T17:43:10;9.02;;;6.03;;
51636;SDS011;37713;53.254;6.460;2022-09-12T17:45:37;17.90;;;6.20;;
51636;SDS011;37713;53.254;6.460;2022-09-12T17:48:04;11.15;;;6.28;;
51636;SDS011;37713;53.254;6.460;2022-09-12T17:50:34;22.92;;;6.55;;
51636;SDS011;37713;53.254;6.460;2022-09-12T17:53:00;10.48;;;5.43;;
51636;SDS011;37713;53.254;6.460;2022-09-12T17:55:26;11.45;;;5.43;;
51636;SDS011;37713;53.254;6.460;2022-09-12T17:57:57;10.32;;;5.85;;
51636;SDS011;37713;53.254;6.460;2022-09-12T18:00:25;11.15;;;6.30;;
51636;SDS011;37713;53.254;6.460;2022-09-12T18:03:12;9.88;;;5.57;;
51636;SDS011;37713;53.254;6.460;2022-09-12T18:05:48;10.27;;;5.75;;
51636;SDS011;37713;53.254;6.460;2022-09-12T18:08:18;11.50;;;6.13;;